Time;durP1;ratioP1;P1;durP2;ratioP2;P2;SDS_P1;SDS_P2;PMS_P1;PMS_P2;Temp;Humidity;BMP_temperature;BMP_pressure;BME280_temperature;BME280_humidity;BME280_pressure;Samples;Min_cycle;Max_cycle;Signal;HPM_P1;HPM_P2
2022/07/11 00:00:41;;;;;;;4.05;0.75;;;18.10;51.20;;;;;;5114244;28;20067;-70
2022/07/11 00:03:07;;;;;;;5.47;0.77;;;18.10;51.20;;;;;;5114406;28;20022;-71
2022/07/11 00:05:33;;;;;;;3.22;0.60;;;18.10;51.20;;;;;;5114476;28;20476;-70
2022/07/11 00:07:59;;;;;;;1.17;0.60;;;18.10;51.20;;;;;;5114350;28;20098;-68
2022/07/11 00:10:24;;;;;;;0.55;0.50;;;18.10;51.30;;;;;;5114335;28;20028;-70
2022/07/11 00:12:50;;;;;;;1.70;0.52;;;18.10;51.10;;;;;;5114273;28;20071;-68
2022/07/11 00:15:16;;;;;;;1.35;0.77;;;18.10;51.20;;;;;;5114208;28;20094;-71
2022/07/11 00:17:42;;;;;;;2.35;0.60;;;18.10;51.30;;;;;;5113177;28;20076;-69
2022/07/11 00:20:08;;;;;;;1.02;0.55;;;18.10;51.40;;;;;;5113363;28;20131;-70
2022/07/11 00:22:34;;;;;;;0.73;0.50;;;18.10;51.30;;;;;;5114082;28;20020;-71
2022/07/11 00:25:00;;;;;;;0.95;0.63;;;18.10;51.20;;;;;;5114004;28;20011;-69
2022/07/11 00:27:26;;;;;;;1.23;0.80;;;18.10;51.10;;;;;;5114047;28;20020;-70
2022/07/11 00:29:51;;;;;;;2.20;0.55;;;18.20;51.10;;;;;;5113985;28;20372;-71
2022/07/11 00:32:17;;;;;;;1.25;0.50;;;18.10;50.80;;;;;;5113896;28;20034;-71
2022/07/11 00:34:43;;;;;;;1.02;0.73;;;18.20;50.80;;;;;;5113777;28;20019;-70
2022/07/11 00:37:09;;;;;;;2.15;0.70;;;18.20;50.90;;;;;;5113857;28;20028;-69
2022/07/11 00:39:35;;;;;;;2.30;0.70;;;18.20;51.00;;;;;;5113647;28;20024;-69
2022/07/11 00:42:00;;;;;;;5.82;0.50;;;18.10;51.10;;;;;;5113710;27;20142;-69
2022/07/11 00:44:26;;;;;;;1.88;0.73;;;18.20;51.20;;;;;;5099034;28;20435;-71
2022/07/11 00:46:53;;;;;;;1.42;0.80;;;18.10;51.20;;;;;;5091964;28;20512;-69
2022/07/11 00:49:20;;;;;;;1.08;0.77;;;18.20;51.20;;;;;;5093131;28;20016;-70
2022/07/11 00:51:46;;;;;;;1.60;0.50;;;18.10;51.20;;;;;;5092193;28;20463;-71
2022/07/11 00:54:14;;;;;;;1.85;0.65;;;18.20;51.10;;;;;;5092907;28;20422;-70
2022/07/11 00:56:41;;;;;;;3.15;0.80;;;18.10;51.00;;;;;;5093010;28;20017;-69
2022/07/11 00:59:08;;;;;;;1.10;0.60;;;18.10;50.90;;;;;;5092884;28;20017;-71
2022/07/11 01:01:37;;;;;;;1.23;0.77;;;18.10;51.00;;;;;;5092962;28;20066;-68
2022/07/11 01:04:03;;;;;;;0.68;0.52;;;18.10;51.10;;;;;;5092755;28;20020;-69
2022/07/11 01:06:29;;;;;;;3.72;0.88;;;18.00;51.20;;;;;;5092884;28;20022;-68
2022/07/11 01:08:55;;;;;;;0.70;0.60;;;17.90;51.20;;;;;;5092849;28;20024;-68
2022/07/11 01:11:22;;;;;;;4.10;0.80;;;17.90;51.40;;;;;;5092802;28;20532;-68
2022/07/11 01:13:48;;;;;;;1.38;0.68;;;17.90;51.40;;;;;;5092777;28;20036;-69
2022/07/11 01:16:17;;;;;;;3.72;0.80;;;17.80;51.40;;;;;;5092798;28;20024;-70
2022/07/11 01:18:45;;;;;;;1.15;0.50;;;17.70;51.30;;;;;;5092741;28;20028;-68
2022/07/11 01:21:29;;;;;;;1.55;0.80;;;17.70;51.50;;;;;;5092474;28;20400;-69
2022/07/11 01:23:57;;;;;;;0.60;0.50;;;17.70;51.80;;;;;;5092575;28;20050;-69
2022/07/11 01:26:24;;;;;;;0.95;0.50;;;17.70;51.90;;;;;;5092493;28;20051;-70
2022/07/11 01:28:51;;;;;;;2.65;0.77;;;17.60;52.00;;;;;;5092499;28;20481;-69
2022/07/11 01:31:17;;;;;;;1.00;0.55;;;17.60;51.80;;;;;;5092486;28;20063;-70
2022/07/11 01:33:43;;;;;;;1.58;0.73;;;17.60;51.90;;;;;;5092615;28;20020;-69
2022/07/11 01:36:09;;;;;;;1.95;0.90;;;17.60;52.00;;;;;;5092600;28;20029;-68
2022/07/11 01:38:35;;;;;;;6.75;0.82;;;17.60;52.70;;;;;;5092597;28;20073;-68
2022/07/11 01:41:02;;;;;;;1.45;0.55;;;17.50;52.50;;;;;;5092550;28;20039;-70
2022/07/11 01:43:27;;;;;;;8.10;0.60;;;17.50;52.70;;;;;;5091163;28;20472;-68
2022/07/11 01:45:55;;;;;;;1.10;0.50;;;17.50;53.00;;;;;;5092579;28;20024;-69
2022/07/11 01:48:21;;;;;;;0.70;0.50;;;17.50;53.20;;;;;;5091046;28;20047;-70
2022/07/11 01:50:48;;;;;;;2.33;1.05;;;17.40;53.20;;;;;;5092423;28;20028;-70
2022/07/11 01:53:14;;;;;;;1.20;0.80;;;17.40;53.10;;;;;;5092416;28;20437;-68
2022/07/11 01:55:40;;;;;;;1.08;0.57;;;17.40;53.40;;;;;;5092503;28;20024;-68
2022/07/11 01:58:07;;;;;;;0.82;0.60;;;17.40;53.40;;;;;;5091186;28;20473;-68
2022/07/11 02:00:32;;;;;;;1.10;0.60;;;17.40;53.50;;;;;;5092253;28;20020;-70
2022/07/11 02:02:58;;;;;;;1.55;0.90;;;17.40;53.60;;;;;;5092398;28;20020;-69
2022/07/11 02:05:24;;;;;;;1.23;0.65;;;17.40;53.50;;;;;;5092372;28;20028;-68
2022/07/11 02:10:34;;;;;;;;;;;17.40;53.50;;;;;;5096877;28;20035;-69
2022/07/11 02:13:01;;;;;;;6.85;0.88;;;17.50;52.50;;;;;;5094819;28;19908;-70
2022/07/11 02:15:28;;;;;;;4.43;1.02;;;17.50;53.10;;;;;;5096047;28;20028;-68
2022/07/11 02:17:54;;;;;;;0.80;0.63;;;17.50;53.20;;;;;;5095972;28;20028;-68
2022/07/11 02:20:20;;;;;;;1.63;0.60;;;17.50;53.30;;;;;;5095705;28;20465;-68
2022/07/11 02:22:48;;;;;;;1.27;0.70;;;17.60;53.30;;;;;;5095782;28;20020;-68
2022/07/11 02:25:14;;;;;;;2.47;0.90;;;17.50;53.30;;;;;;5095785;28;20040;-68
2022/07/11 02:27:40;;;;;;;1.52;0.80;;;17.50;53.30;;;;;;5095698;28;20515;-69
2022/07/11 02:30:07;;;;;;;2.22;0.73;;;17.60;53.30;;;;;;5095592;28;20056;-68
2022/07/11 02:32:33;;;;;;;1.58;0.70;;;17.60;53.20;;;;;;5095675;28;20095;-68
2022/07/11 02:34:59;;;;;;;1.65;0.60;;;17.60;53.20;;;;;;5095761;28;20066;-71
2022/07/11 02:37:25;;;;;;;1.10;0.68;;;17.60;53.20;;;;;;5095658;28;20020;-69
2022/07/11 02:39:51;;;;;;;7.63;0.88;;;17.60;53.20;;;;;;5095508;28;20071;-68
2022/07/11 02:42:21;;;;;;;2.05;0.80;;;17.60;53.20;;;;;;5095506;28;20026;-69
2022/07/11 02:44:47;;;;;;;3.63;0.77;;;17.50;53.20;;;;;;5095501;28;20065;-68
2022/07/11 02:47:14;;;;;;;1.98;0.82;;;17.50;53.20;;;;;;5094217;28;20381;-68
2022/07/11 02:49:40;;;;;;;3.45;0.85;;;17.50;53.40;;;;;;5095363;28;20018;-70
2022/07/11 02:52:06;;;;;;;1.75;0.70;;;17.50;53.40;;;;;;5095399;28;20028;-68
2022/07/11 02:54:35;;;;;;;2.58;0.70;;;17.50;53.50;;;;;;5095274;28;20047;-69
2022/07/11 02:57:01;;;;;;;1.35;0.50;;;17.50;53.50;;;;;;5095427;28;20055;-69
2022/07/11 02:59:27;;;;;;;1.83;0.68;;;17.50;53.60;;;;;;5095107;28;20113;-70
2022/07/11 03:01:54;;;;;;;1.48;0.60;;;17.50;53.60;;;;;;5095124;28;20423;-68
2022/07/11 03:04:19;;;;;;;2.22;0.50;;;17.50;53.50;;;;;;5095095;28;20111;-69
2022/07/11 03:06:45;;;;;;;2.70;0.73;;;17.50;53.50;;;;;;5095162;28;20444;-70
2022/07/11 03:09:11;;;;;;;3.33;0.90;;;17.50;53.30;;;;;;5095037;28;20445;-69
2022/07/11 03:11:37;;;;;;;1.75;0.80;;;17.50;53.30;;;;;;5094939;28;20028;-69
2022/07/11 03:14:03;;;;;;;2.83;0.68;;;17.50;53.20;;;;;;5094906;28;20069;-71
2022/07/11 03:16:30;;;;;;;2.80;0.70;;;17.50;53.30;;;;;;5094872;28;20028;-70
2022/07/11 03:18:56;;;;;;;1.88;0.73;;;17.50;53.40;;;;;;5094968;28;20028;-69
2022/07/11 03:21:23;;;;;;;4.13;0.85;;;17.50;53.40;;;;;;5094494;28;20047;-69
2022/07/11 03:23:50;;;;;;;2.50;0.85;;;17.60;53.60;;;;;;5094676;28;20016;-70
2022/07/11 03:26:16;;;;;;;1.30;0.70;;;17.60;53.70;;;;;;5094695;28;20024;-70
2022/07/11 03:28:42;;;;;;;1.13;0.85;;;17.60;53.80;;;;;;5094693;28;20107;-70
2022/07/11 03:31:09;;;;;;;4.97;1.00;;;17.60;53.90;;;;;;5094583;28;20104;-69
2022/07/11 03:33:34;;;;;;;1.52;0.80;;;17.60;53.90;;;;;;5094478;28;20024;-68
2022/07/11 03:36:00;;;;;;;1.33;0.75;;;17.60;53.90;;;;;;5094397;28;20051;-68
2022/07/11 03:38:27;;;;;;;5.05;1.20;;;17.60;53.90;;;;;;5094303;28;20024;-70
2022/07/11 03:40:55;;;;;;;2.35;0.80;;;17.60;54.10;;;;;;5092870;28;20362;-70
2022/07/11 03:43:24;;;;;;;4.65;1.15;;;17.60;54.00;;;;;;5094302;28;20022;-69
2022/07/11 03:45:50;;;;;;;1.33;0.57;;;17.60;54.20;;;;;;5094349;28;20035;-69
2022/07/11 03:48:15;;;;;;;1.63;0.93;;;17.50;54.30;;;;;;5094263;28;20032;-69
2022/07/11 03:50:41;;;;;;;1.27;0.68;;;17.50;54.50;;;;;;5094226;28;20030;-69
2022/07/11 03:53:07;;;;;;;3.30;0.90;;;17.50;54.60;;;;;;5094047;28;20369;-68
2022/07/11 03:55:33;;;;;;;2.63;0.75;;;17.50;54.60;;;;;;5092850;28;20031;-70
2022/07/11 03:57:59;;;;;;;1.42;0.77;;;17.50;54.70;;;;;;5093729;28;20443;-69
2022/07/11 04:00:25;;;;;;;2.15;0.70;;;17.50;54.70;;;;;;5093814;28;20066;-69
2022/07/11 04:02:52;;;;;;;1.60;0.60;;;17.60;54.70;;;;;;5092620;28;20028;-70
2022/07/11 04:05:17;;;;;;;1.33;0.70;;;17.60;54.50;;;;;;5092432;28;20026;-68
2022/07/11 04:07:43;;;;;;;2.05;0.60;;;17.60;54.60;;;;;;5093752;28;20024;-69
2022/07/11 04:10:09;;;;;;;2.47;0.90;;;17.60;54.70;;;;;;5093607;28;20028;-69
2022/07/11 04:12:35;;;;;;;1.50;0.60;;;17.60;54.70;;;;;;5093558;28;20027;-69
2022/07/11 04:15:02;;;;;;;5.70;1.08;;;17.60;54.60;;;;;;5093523;28;20020;-70
2022/07/11 04:17:28;;;;;;;2.80;1.10;;;17.70;54.70;;;;;;5092172;28;20032;-69
2022/07/11 04:19:54;;;;;;;1.42;0.63;;;17.70;54.60;;;;;;5093092;28;20466;-71
2022/07/11 04:22:20;;;;;;;1.83;0.80;;;17.70;54.60;;;;;;5093412;28;20020;-68
2022/07/11 04:24:46;;;;;;;1.67;0.70;;;17.70;54.70;;;;;;5093454;28;20047;-69
2022/07/11 04:27:12;;;;;;;1.90;0.85;;;17.80;54.90;;;;;;5093361;28;20050;-70
2022/07/11 04:29:38;;;;;;;2.92;1.00;;;17.80;54.90;;;;;;5092774;28;20035;-70
2022/07/11 04:32:04;;;;;;;3.50;0.80;;;17.90;54.90;;;;;;5093361;28;20024;-70
2022/07/11 04:34:29;;;;;;;10.55;1.67;;;17.90;54.70;;;;;;5093373;28;20511;-69
2022/07/11 04:36:55;;;;;;;3.53;0.80;;;18.00;54.60;;;;;;5093313;28;20028;-70
2022/07/11 04:39:21;;;;;;;6.05;0.90;;;18.00;54.50;;;;;;5091712;28;20096;-70
2022/07/11 04:41:47;;;;;;;1.30;0.60;;;18.10;54.50;;;;;;5093249;28;20044;-71
2022/07/11 04:44:12;;;;;;;2.00;1.00;;;18.20;54.40;;;;;;5093122;28;20444;-71
2022/07/11 04:46:38;;;;;;;1.33;0.77;;;18.20;54.10;;;;;;5093129;28;20035;-70
2022/07/11 04:49:04;;;;;;;2.97;1.00;;;18.30;53.90;;;;;;5093032;28;20536;-70
2022/07/11 04:51:30;;;;;;;2.45;1.10;;;18.30;53.60;;;;;;5093091;28;20035;-70
2022/07/11 04:53:56;;;;;;;1.88;0.80;;;18.40;53.40;;;;;;5093306;28;20058;-69
2022/07/11 04:56:21;;;;;;;1.67;0.85;;;18.50;53.10;;;;;;5091677;28;20024;-68
2022/07/11 04:58:48;;;;;;;6.43;1.00;;;18.50;52.70;;;;;;5092965;28;20028;-69
2022/07/11 05:01:14;;;;;;;2.35;0.95;;;18.60;52.50;;;;;;5091453;28;20059;-69
2022/07/11 05:03:40;;;;;;;3.30;1.02;;;18.70;52.30;;;;;;5092861;28;20051;-69
2022/07/11 05:06:07;;;;;;;9.27;0.82;;;18.70;51.80;;;;;;5092844;28;20024;-68
2022/07/11 05:08:36;;;;;;;3.50;0.80;;;18.80;51.60;;;;;;5092800;28;20066;-70
2022/07/11 05:11:04;;;;;;;2.88;0.90;;;18.80;51.60;;;;;;5092800;28;20073;-71
2022/07/11 05:13:30;;;;;;;2.28;0.98;;;18.80;51.60;;;;;;5092741;28;20044;-70
2022/07/11 05:15:57;;;;;;;5.55;1.58;;;18.80;51.50;;;;;;5092720;28;20024;-70
2022/07/11 05:18:23;;;;;;;3.97;1.00;;;18.90;51.50;;;;;;5092524;28;20035;-70
2022/07/11 05:20:48;;;;;;;2.67;0.95;;;18.90;51.20;;;;;;5117072;28;20032;-68
2022/07/11 05:23:15;;;;;;;2.30;0.90;;;18.90;51.20;;;;;;5132939;28;20475;-71
2022/07/11 05:25:41;;;;;;;10.70;0.95;;;19.00;51.20;;;;;;5133573;28;20023;-69
2022/07/11 05:28:07;;;;;;;1.02;0.77;;;19.00;51.20;;;;;;5126153;28;20446;-70
2022/07/11 05:30:32;;;;;;;2.35;0.90;;;19.10;51.00;;;;;;5102697;28;20111;-69
2022/07/11 05:32:58;;;;;;;3.67;1.15;;;19.10;50.50;;;;;;5092637;28;20024;-68
2022/07/11 05:35:25;;;;;;;3.25;0.80;;;19.20;50.70;;;;;;5092619;28;20032;-70
2022/07/11 05:37:51;;;;;;;2.97;1.10;;;19.30;50.70;;;;;;5098891;28;20047;-68
2022/07/11 05:40:17;;;;;;;3.80;0.98;;;19.30;50.40;;;;;;5105049;28;20068;-68
2022/07/11 05:42:44;;;;;;;4.63;1.00;;;19.40;50.40;;;;;;5115914;28;20016;-69
2022/07/11 05:45:10;;;;;;;7.88;1.40;;;19.50;50.10;;;;;;5107095;28;20094;-70
2022/07/11 05:47:36;;;;;;;2.25;0.80;;;19.60;50.10;;;;;;5115738;28;20095;-70
2022/07/11 05:50:02;;;;;;;2.53;1.02;;;19.70;49.80;;;;;;5096359;28;20096;-68
2022/07/11 05:52:28;;;;;;;6.82;1.65;;;19.70;49.60;;;;;;5097237;28;20017;-70
2022/07/11 05:54:54;;;;;;;2.20;1.08;;;19.70;49.20;;;;;;5112626;28;20112;-69
2022/07/11 05:57:20;;;;;;;2.17;0.85;;;19.80;49.30;;;;;;5105649;28;20055;-68
2022/07/11 05:59:46;;;;;;;9.15;1.10;;;19.80;49.40;;;;;;5116595;28;20105;-69
2022/07/11 06:02:12;;;;;;;2.03;0.95;;;19.80;49.10;;;;;;5112970;28;20098;-68
2022/07/11 06:04:38;;;;;;;3.38;1.17;;;19.90;49.30;;;;;;5096319;28;20095;-68
2022/07/11 06:07:05;;;;;;;2.80;0.75;;;19.90;49.10;;;;;;5105000;27;20103;-69
2022/07/11 06:09:30;;;;;;;2.80;1.05;;;19.90;49.00;;;;;;5102149;28;20016;-71
2022/07/11 06:11:57;;;;;;;1.83;0.90;;;20.00;49.20;;;;;;5094844;28;20107;-68
2022/07/11 06:14:24;;;;;;;3.92;1.05;;;19.90;49.10;;;;;;5104590;28;20007;-69
2022/07/11 06:16:50;;;;;;;6.78;1.10;;;20.00;49.00;;;;;;5100529;28;20097;-69
2022/07/11 06:19:16;;;;;;;12.57;2.85;;;20.00;49.10;;;;;;5095610;28;20091;-69
2022/07/11 06:21:42;;;;;;;6.65;1.13;;;20.10;48.90;;;;;;5095473;28;20028;-69
2022/07/11 06:24:08;;;;;;;3.33;0.90;;;20.10;48.60;;;;;;5095671;28;20024;-68
2022/07/11 06:26:34;;;;;;;5.78;1.20;;;20.10;48.40;;;;;;5097453;27;20028;-69
2022/07/11 06:29:00;;;;;;;9.20;1.33;;;20.10;48.40;;;;;;5115719;28;20040;-71
2022/07/11 06:31:25;;;;;;;12.27;1.55;;;20.10;48.30;;;;;;5116130;28;20387;-69
2022/07/11 06:33:54;;;;;;;6.05;0.98;;;20.10;48.60;;;;;;5101457;27;20031;-70
2022/07/11 06:36:22;;;;;;;5.95;1.52;;;20.10;48.50;;;;;;5102628;28;20555;-68
2022/07/11 06:38:49;;;;;;;2.70;1.00;;;20.10;48.60;;;;;;5123002;27;20059;-70
2022/07/11 06:41:15;;;;;;;6.45;1.38;;;20.10;48.30;;;;;;5095541;28;20070;-70
2022/07/11 06:43:41;;;;;;;2.17;0.90;;;20.10;48.60;;;;;;5094282;28;20051;-69
2022/07/11 06:46:07;;;;;;;6.90;1.30;;;20.20;48.70;;;;;;5095100;28;20093;-68
2022/07/11 06:48:33;;;;;;;3.17;0.70;;;20.40;48.70;;;;;;5095408;28;20050;-68
2022/07/11 06:50:59;;;;;;;7.53;0.90;;;20.60;48.20;;;;;;5095301;28;20020;-68
2022/07/11 06:53:24;;;;;;;1.10;0.60;;;20.80;47.90;;;;;;5094703;28;20092;-70
2022/07/11 06:55:50;;;;;;;6.18;1.20;;;20.90;47.60;;;;;;5095247;28;20556;-69
2022/07/11 06:58:34;;;;;;;2.70;1.10;;;21.00;47.50;;;;;;5095128;28;20157;-70
2022/07/11 07:01:01;;;;;;;3.50;1.30;;;21.00;47.20;;;;;;5095169;28;20027;-68
2022/07/11 07:03:28;;;;;;;1.52;1.10;;;21.10;47.20;;;;;;5095031;28;20016;-68
2022/07/11 07:05:55;;;;;;;3.00;1.13;;;21.10;47.40;;;;;;5095003;28;20058;-69
2022/07/11 07:08:25;;;;;;;2.97;0.85;;;21.20;47.40;;;;;;5094757;28;20034;-70
2022/07/11 07:10:52;;;;;;;3.30;1.20;;;21.30;47.40;;;;;;5095070;28;20042;-71
2022/07/11 07:13:19;;;;;;;5.47;1.15;;;21.40;47.10;;;;;;5095022;28;20028;-71
2022/07/11 07:15:46;;;;;;;2.65;1.00;;;21.50;47.10;;;;;;5094891;28;20030;-69
2022/07/11 07:18:12;;;;;;;3.60;0.90;;;21.70;46.80;;;;;;5094935;28;20530;-70
2022/07/11 07:20:38;;;;;;;5.72;0.80;;;21.80;46.70;;;;;;5094509;28;20052;-68
2022/07/11 07:23:04;;;;;;;3.83;0.70;;;21.90;46.40;;;;;;5094708;28;20040;-71
2022/07/11 07:25:29;;;;;;;4.38;1.50;;;22.10;46.40;;;;;;5094653;28;20048;-69
2022/07/11 07:27:55;;;;;;;7.78;0.70;;;22.20;46.00;;;;;;5094599;28;20058;-71
2022/07/11 07:30:21;;;;;;;3.15;0.90;;;22.30;45.50;;;;;;5093427;28;20024;-69
2022/07/11 07:32:47;;;;;;;1.70;1.00;;;22.40;45.20;;;;;;5094643;28;20423;-69
2022/07/11 07:35:13;;;;;;;2.70;0.80;;;22.50;45.10;;;;;;5094296;28;20016;-70
2022/07/11 07:37:38;;;;;;;1.92;0.90;;;22.60;45.00;;;;;;5094357;28;20118;-69
2022/07/11 07:40:05;;;;;;;22.85;1.20;;;22.70;44.60;;;;;;5092929;28;20032;-70
2022/07/11 07:42:31;;;;;;;16.13;2.15;;;22.90;44.10;;;;;;5092906;28;20488;-70
2022/07/11 07:44:56;;;;;;;6.95;1.30;;;23.00;44.30;;;;;;5092941;28;20024;-68
2022/07/11 07:47:22;;;;;;;11.27;1.10;;;23.20;43.60;;;;;;5094110;28;20070;-69
2022/07/11 07:49:48;;;;;;;2.42;1.15;;;23.40;43.30;;;;;;5093920;28;20132;-71
2022/07/11 07:52:14;;;;;;;6.70;1.00;;;23.60;42.50;;;;;;5093924;28;20020;-68
2022/07/11 07:54:40;;;;;;;3.60;0.88;;;23.60;41.60;;;;;;5093976;28;20388;-70
2022/07/11 07:57:06;;;;;;;6.75;0.90;;;23.80;42.10;;;;;;5094020;28;20020;-68
2022/07/11 07:59:32;;;;;;;2.72;1.10;;;23.80;41.50;;;;;;5093855;28;20031;-68
2022/07/11 08:01:57;;;;;;;0.60;0.60;;;23.90;41.30;;;;;;5093968;28;20027;-69
2022/07/11 08:04:23;;;;;;;8.88;2.42;;;24.00;41.10;;;;;;5092759;28;20024;-71
2022/07/11 08:06:49;;;;;;;5.30;1.15;;;24.10;41.00;;;;;;5093790;28;20032;-70
2022/07/11 08:09:15;;;;;;;3.65;0.93;;;24.10;40.80;;;;;;5093791;28;20108;-68
2022/07/11 08:11:40;;;;;;;4.57;0.80;;;24.20;40.80;;;;;;5092548;28;20039;-71
2022/07/11 08:14:07;;;;;;;14.23;1.40;;;24.20;40.40;;;;;;5093615;28;20077;-70
2022/07/11 08:16:34;;;;;;;2.40;0.77;;;24.20;40.50;;;;;;5093752;28;20017;-71
2022/07/11 08:19:03;;;;;;;2.60;0.63;;;24.30;40.40;;;;;;5093805;28;20085;-68
2022/07/11 08:21:30;;;;;;;1.75;0.70;;;24.30;40.40;;;;;;5093519;28;20061;-71
2022/07/11 08:23:56;;;;;;;1.85;0.63;;;24.40;40.60;;;;;;5093479;28;20019;-70
2022/07/11 08:26:22;;;;;;;1.98;0.80;;;24.50;40.50;;;;;;5093411;28;20449;-71
2022/07/11 08:28:48;;;;;;;1.30;0.55;;;24.70;39.60;;;;;;5093372;28;20028;-70
2022/07/11 08:31:14;;;;;;;4.00;0.80;;;24.80;39.50;;;;;;5093227;28;20518;-72
2022/07/11 08:33:39;;;;;;;2.70;1.00;;;25.00;40.00;;;;;;5093215;28;20073;-70
2022/07/11 08:36:06;;;;;;;6.45;1.00;;;25.10;39.40;;;;;;5093263;28;20024;-71
2022/07/11 08:38:32;;;;;;;1.27;0.60;;;25.20;38.30;;;;;;5093146;28;20069;-70
2022/07/11 08:40:58;;;;;;;3.55;0.93;;;25.20;38.50;;;;;;5092977;28;20020;-69
2022/07/11 08:43:29;;;;;;;3.80;0.88;;;25.30;38.90;;;;;;5092906;28;20020;-69
2022/07/11 08:45:55;;;;;;;5.97;0.93;;;25.30;39.10;;;;;;5092271;28;20430;-69
2022/07/11 08:48:24;;;;;;;1.48;0.70;;;25.30;39.20;;;;;;5093151;28;20053;-70
2022/07/11 08:50:51;;;;;;;3.20;0.75;;;25.40;39.20;;;;;;5093273;28;20098;-71
2022/07/11 08:53:18;;;;;;;1.38;0.70;;;25.50;38.60;;;;;;5093581;28;20031;-71
2022/07/11 08:55:44;;;;;;;3.30;0.88;;;25.50;38.60;;;;;;5093632;28;20044;-68
2022/07/11 08:58:10;;;;;;;4.95;0.70;;;25.60;38.10;;;;;;5093569;28;20035;-69
2022/07/11 09:00:40;;;;;;;1.77;0.75;;;25.70;38.00;;;;;;5093476;28;20495;-68
2022/07/11 09:03:07;;;;;;;1.63;0.65;;;25.70;38.20;;;;;;5093477;28;20039;-72
2022/07/11 09:05:33;;;;;;;4.18;1.20;;;25.70;38.70;;;;;;5093205;28;20038;-69
2022/07/11 09:07:59;;;;;;;3.78;0.70;;;25.70;39.00;;;;;;5093273;28;20016;-70
2022/07/11 09:10:25;;;;;;;2.47;0.68;;;25.80;39.40;;;;;;5091915;28;20032;-68
2022/07/11 09:13:07;;;;;;;1.70;0.70;;;25.80;39.00;;;;;;5093147;28;20051;-70
2022/07/11 09:15:45;;;;;;;1.52;0.60;;;25.90;39.40;;;;;;5093013;28;20028;-68
2022/07/11 09:18:41;;;;;;;2.90;0.73;;;26.00;39.00;;;;;;5093362;28;20058;-69
2022/07/11 09:26:52;;;;;;;1.90;0.50;;;26.00;38.10;;;;;;5093592;28;20384;-68
2022/07/11 09:29:27;;;;;;;4.20;1.15;;;25.90;38.60;;;;;;5093192;28;20104;-68
2022/07/11 09:31:53;;;;;;;6.22;0.95;;;25.90;38.10;;;;;;5093130;28;20020;-68
2022/07/11 09:34:20;;;;;;;1.48;0.70;;;25.80;38.20;;;;;;5093200;28;20491;-69
2022/07/11 09:36:50;;;;;;;1.17;0.65;;;25.80;38.60;;;;;;5093211;28;20025;-69
2022/07/11 09:39:21;;;;;;;5.60;0.90;;;25.80;39.60;;;;;;5093119;28;20023;-69
2022/07/11 09:41:51;;;;;;;0.63;0.47;;;25.90;38.90;;;;;;5092980;28;20088;-67
2022/07/11 09:44:28;;;;;;;2.78;0.60;;;26.00;38.50;;;;;;5092907;28;20020;-69
2022/07/11 09:46:56;;;;;;;0.93;0.60;;;26.10;38.00;;;;;;5092729;28;20036;-68
2022/07/11 09:49:36;;;;;;;2.03;0.85;;;26.10;38.00;;;;;;5091366;28;20017;-70
2022/07/11 09:52:16;;;;;;;3.05;0.38;;;26.20;38.30;;;;;;5092714;28;20354;-70
2022/07/11 09:55:00;;;;;;;2.17;0.63;;;26.20;37.60;;;;;;5092700;28;20044;-69
2022/07/11 09:57:33;;;;;;;;;;;26.20;37.40;;;;;;5093130;28;20496;-70
2022/07/11 10:00:00;;;;;;;2.47;0.70;;;26.20;38.20;;;;;;5092840;28;20447;-69
2022/07/11 10:02:27;;;;;;;0.98;0.45;;;26.20;38.20;;;;;;5092683;28;20024;-67
2022/07/11 10:04:53;;;;;;;2.28;0.70;;;26.10;38.80;;;;;;5092700;28;20065;-67
2022/07/11 10:07:19;;;;;;;1.33;0.60;;;26.10;39.20;;;;;;5091212;28;20024;-68
2022/07/11 10:09:45;;;;;;;3.53;0.65;;;26.00;39.70;;;;;;5092616;28;20025;-67
2022/07/11 10:12:11;;;;;;;1.60;0.50;;;26.00;40.00;;;;;;5092709;28;20028;-70
2022/07/11 10:14:38;;;;;;;10.45;0.85;;;25.80;40.40;;;;;;5092649;28;20519;-68
2022/07/11 10:17:14;;;;;;;2.95;0.68;;;25.80;40.80;;;;;;5092546;28;20024;-69
2022/07/11 10:19:59;;;;;;;4.55;0.70;;;25.80;41.30;;;;;;5092312;28;20051;-68
2022/07/11 10:22:37;;;;;;;0.93;0.40;;;25.80;40.70;;;;;;5092521;28;20053;-69
2022/07/11 10:25:26;;;;;;;1.88;0.50;;;26.00;41.20;;;;;;5091202;28;20385;-68
2022/07/11 10:28:25;;;;;;;3.95;0.40;;;26.00;40.20;;;;;;5089792;28;20028;-68
2022/07/11 10:30:55;;;;;;;0.93;0.40;;;26.20;40.00;;;;;;5093255;28;20032;-69
2022/07/11 10:33:22;;;;;;;0.47;0.47;;;26.30;39.70;;;;;;5095955;28;20028;-68
2022/07/11 10:35:50;;;;;;;2.10;0.68;;;26.40;39.60;;;;;;5096152;28;20044;-68
2022/07/11 10:38:17;;;;;;;2.13;0.68;;;26.50;39.50;;;;;;5096041;28;20024;-68
2022/07/11 10:40:54;;;;;;;2.83;1.00;;;26.50;38.90;;;;;;5094572;28;20070;-68
2022/07/11 10:43:20;;;;;;;1.52;0.75;;;26.60;39.20;;;;;;5094627;28;20024;-70
2022/07/11 10:46:01;;;;;;;3.35;1.10;;;26.60;38.20;;;;;;5095916;28;20035;-68
2022/07/11 10:48:29;;;;;;;4.00;0.82;;;26.70;38.40;;;;;;5095789;28;20028;-69
2022/07/11 10:51:24;;;;;;;3.20;0.60;;;26.80;38.70;;;;;;5095891;28;20476;-70
2022/07/11 10:53:52;;;;;;;4.10;0.85;;;26.90;38.30;;;;;;5095137;28;20092;-70
2022/07/11 10:56:34;;;;;;;1.92;0.90;;;26.90;37.70;;;;;;5095646;28;20024;-70
2022/07/11 10:59:19;;;;;;;15.43;1.27;;;26.90;38.00;;;;;;5095573;28;20035;-68
2022/07/11 11:02:11;;;;;;;4.05;0.70;;;26.80;37.90;;;;;;5095503;28;20111;-69
2022/07/11 11:04:58;;;;;;;3.08;0.77;;;26.80;38.10;;;;;;5095535;28;20051;-67
2022/07/11 11:07:34;;;;;;;1.30;0.40;;;26.70;38.20;;;;;;5095495;28;20031;-67
2022/07/11 11:10:03;;;;;;;2.72;0.70;;;26.60;38.10;;;;;;5095394;28;20052;-69
2022/07/11 11:13:04;;;;;;;3.92;0.77;;;26.60;38.50;;;;;;5095372;28;20039;-68
2022/07/11 11:15:35;;;;;;;4.38;0.80;;;26.70;38.90;;;;;;5036041;28;20143;-68
2022/07/11 11:18:25;;;;;;;1.45;0.93;;;26.80;38.50;;;;;;5052806;28;20029;-68
2022/07/11 11:21:03;;;;;;;1.67;0.80;;;26.80;38.10;;;;;;5052626;28;20063;-67
2022/07/11 11:23:30;;;;;;;1.13;0.80;;;26.90;38.40;;;;;;5035989;28;20048;-69
2022/07/11 11:26:15;;;;;;;3.50;0.80;;;27.00;38.00;;;;;;5052745;28;20048;-68
2022/07/11 11:29:05;;;;;;;1.38;0.50;;;27.10;37.60;;;;;;5064579;28;20027;-71
2022/07/11 11:31:32;;;;;;;2.10;1.13;;;27.00;37.30;;;;;;5072603;28;20028;-70
2022/07/11 11:34:01;;;;;;;1.33;0.60;;;27.00;36.80;;;;;;5072448;28;20032;-69
2022/07/11 11:36:27;;;;;;;2.40;0.65;;;27.00;36.80;;;;;;5072368;28;20036;-68
2022/07/11 11:38:54;;;;;;;8.48;1.08;;;27.00;37.10;;;;;;5072455;28;20477;-68
2022/07/11 11:41:30;;;;;;;18.50;1.33;;;27.10;37.30;;;;;;5072295;28;20036;-71
2022/07/11 11:44:01;;;;;;;7.00;1.30;;;27.10;37.00;;;;;;5072351;28;20194;-68
2022/07/11 11:46:33;;;;;;;3.45;0.75;;;27.20;36.90;;;;;;5055485;28;20028;-68
2022/07/11 11:49:01;;;;;;;1.80;0.77;;;27.20;36.60;;;;;;5079030;28;20124;-67
2022/07/11 11:51:29;;;;;;;2.25;0.93;;;27.10;36.60;;;;;;5094579;28;20473;-68
2022/07/11 11:54:02;;;;;;;1.33;0.50;;;26.90;37.00;;;;;;5093218;28;20032;-68
2022/07/11 11:56:36;;;;;;;3.05;0.50;;;26.80;37.00;;;;;;5094672;28;20028;-68
2022/07/11 11:59:33;;;;;;;0.60;0.50;;;26.80;37.20;;;;;;5094342;28;20024;-70
2022/07/11 12:01:59;;;;;;;2.50;0.65;;;26.80;37.30;;;;;;5094472;28;20095;-68
2022/07/11 12:04:29;;;;;;;0.88;0.50;;;26.80;36.90;;;;;;5094144;28;20491;-69
2022/07/11 12:06:55;;;;;;;0.88;0.40;;;26.70;37.00;;;;;;5094146;28;20090;-69
2022/07/11 12:09:46;;;;;;;1.35;0.60;;;26.60;37.40;;;;;;5092832;28;20028;-70
2022/07/11 12:14:52;;;;;;;;;;;26.60;37.20;;;;;;5094752;28;20081;-68
2022/07/11 12:17:25;;;;;;;6.15;0.73;;;26.70;37.60;;;;;;5094054;28;19904;-69
2022/07/11 12:19:51;;;;;;;0.60;0.52;;;26.60;36.80;;;;;;5093633;28;20129;-69
2022/07/11 12:22:16;;;;;;;5.50;0.77;;;26.60;37.40;;;;;;5093812;28;20052;-70
2022/07/11 12:24:48;;;;;;;5.05;0.50;;;26.80;37.00;;;;;;5093760;28;20385;-69
2022/07/11 12:27:21;;;;;;;2.03;0.60;;;26.80;37.20;;;;;;5103977;28;20019;-69
2022/07/11 12:29:52;;;;;;;7.53;0.90;;;27.00;37.10;;;;;;5114071;28;20102;-68
2022/07/11 12:32:20;;;;;;;1.33;0.80;;;27.10;37.10;;;;;;5114138;28;20059;-69
2022/07/11 12:34:47;;;;;;;7.50;0.80;;;27.10;36.90;;;;;;5113981;28;20016;-70
2022/07/11 12:37:14;;;;;;;2.55;0.40;;;27.10;36.70;;;;;;5112709;28;20027;-69
2022/07/11 12:39:59;;;;;;;6.85;0.52;;;27.10;36.90;;;;;;5113955;28;20031;-69
2022/07/11 12:42:29;;;;;;;;;;;27.10;37.20;;;;;;5113140;28;20023;-70
2022/07/11 12:45:11;;;;;;;3.90;0.70;;;27.10;37.30;;;;;;5113844;28;19903;-70
2022/07/11 12:47:42;;;;;;;4.65;0.60;;;27.10;36.80;;;;;;5114070;28;20020;-68
2022/07/11 12:50:20;;;;;;;1.50;0.60;;;27.00;36.70;;;;;;5113443;28;20465;-68
2022/07/11 12:52:48;;;;;;;2.30;0.43;;;26.90;36.90;;;;;;5113964;28;20059;-69
2022/07/11 12:55:23;;;;;;;6.75;1.60;;;26.80;37.20;;;;;;5112602;28;20031;-70
2022/07/11 12:58:13;;;;;;;1.92;0.50;;;26.80;37.20;;;;;;5113836;28;20073;-71
2022/07/11 13:00:57;;;;;;;1.63;0.63;;;26.70;37.40;;;;;;5113695;28;20111;-69
2022/07/11 13:03:33;;;;;;;;;;;26.70;37.10;;;;;;5114124;28;20024;-69
2022/07/11 13:05:59;;;;;;;2.00;0.70;;;26.90;37.60;;;;;;5113684;28;19904;-68